Time;durP1;ratioP1;P1;durP2;ratioP2;P2;SDS_P1;SDS_P2;PMS_P1;PMS_P2;Temp;Humidity;BMP_temperature;BMP_pressure;BME280_temperature;BME280_humidity;BME280_pressure;Samples;Min_cycle;Max_cycle;Signal;HPM_P1;HPM_P2
2022/01/23 00:02:32;;;;;;;3.30;2.60;;;;;;;;;;5026628;28;20215;-65
2022/01/23 00:05:08;;;;;;;3.40;2.90;;;;;;;;;;5027640;28;20202;-65
2022/01/23 00:07:46;;;;;;;3.73;3.27;;;;;;;;;;5038482;28;20211;-65
2022/01/23 00:10:15;;;;;;;2.80;2.60;;;;;;;;;;5012022;28;20587;-65
2022/01/23 00:12:50;;;;;;;3.50;2.70;;;;;;;;;;5027651;28;20572;-65
2022/01/23 00:18:18;;;;;;;2.77;2.50;;;;;;;;;;5028864;28;20303;-65
2022/01/23 00:20:49;;;;;;;2.60;2.40;;;;;;;;;;5012462;28;20711;-66
2022/01/23 00:31:57;;;;;;;3.50;2.60;;;;;;;;;;5011405;28;20238;-65
2022/01/23 00:34:39;;;;;;;3.50;3.17;;;;;;;;;;5022948;28;20196;-66
2022/01/23 00:37:12;;;;;;;3.90;3.07;;;;;;;;;;5026426;28;20222;-66
2022/01/23 00:39:43;;;;;;;3.80;3.40;;;;;;;;;;5030575;28;20218;-66
2022/01/23 00:42:15;;;;;;;3.23;2.93;;;;;;;;;;5027896;28;20219;-66
2022/01/23 00:44:48;;;;;;;2.70;2.50;;;;;;;;;;5023023;28;20905;-66
2022/01/23 00:47:18;;;;;;;3.30;3.00;;;;;;;;;;5025873;28;20265;-66
2022/01/23 00:49:50;;;;;;;3.27;2.97;;;;;;;;;;5031635;28;20701;-66
2022/01/23 00:52:27;;;;;;;3.03;2.73;;;;;;;;;;5025083;28;20191;-66
2022/01/23 00:55:00;;;;;;;2.50;2.30;;;;;;;;;;5030306;28;20214;-66
2022/01/23 00:57:30;;;;;;;3.33;3.03;;;;;;;;;;5031233;28;20498;-65
2022/01/23 01:00:03;;;;;;;3.13;2.90;;;;;;;;;;5028189;28;20590;-66
2022/01/23 01:02:33;;;;;;;2.67;2.47;;;;;;;;;;4992155;28;20242;-66
2022/01/23 01:05:07;;;;;;;3.00;2.70;;;;;;;;;;5021388;28;20684;-65
2022/01/23 01:07:38;;;;;;;2.87;2.67;;;;;;;;;;5019624;28;20238;-65
2022/01/23 01:10:21;;;;;;;3.33;3.03;;;;;;;;;;5026903;28;20295;-65
2022/01/23 01:12:56;;;;;;;2.83;2.53;;;;;;;;;;5023147;28;20210;-66
2022/01/23 01:32:09;;;;;;;3.30;3.00;;;;;;;;;;5020721;28;20227;-66
2022/01/23 01:34:45;;;;;;;3.30;3.00;;;;;;;;;;4988050;28;20223;-66
2022/01/23 01:37:21;;;;;;;3.10;2.80;;;;;;;;;;5005616;28;20212;-66
2022/01/23 01:39:52;;;;;;;3.17;2.80;;;;;;;;;;5008357;28;20192;-66
2022/01/23 01:42:21;;;;;;;3.00;2.77;;;;;;;;;;5003421;28;20227;-65
2022/01/23 01:44:54;;;;;;;2.63;2.43;;;;;;;;;;5002914;28;20283;-65
2022/01/23 01:47:26;;;;;;;3.07;2.87;;;;;;;;;;4992284;28;20200;-66
2022/01/23 01:49:57;;;;;;;2.90;2.70;;;;;;;;;;5006498;28;20262;-66
2022/01/23 01:52:27;;;;;;;2.70;2.50;;;;;;;;;;4990441;28;20660;-65
2022/01/23 01:55:02;;;;;;;3.30;2.77;;;;;;;;;;5007624;28;20784;-66
2022/01/23 01:57:39;;;;;;;2.60;2.40;;;;;;;;;;5008391;28;20210;-66
2022/01/23 02:00:36;;;;;;;3.60;2.70;;;;;;;;;;5008865;28;20207;-66
2022/01/23 02:08:52;;;;;;;3.10;2.80;;;;;;;;;;4987360;28;20579;-65
2022/01/23 02:51:26;;;;;;;2.97;2.60;;;;;;;;;;5025450;28;20214;-65
2022/01/23 02:56:51;;;;;;;3.30;3.00;;;;;;;;;;5026160;28;20531;-66
2022/01/23 02:59:36;;;;;;;3.00;2.70;;;;;;;;;;5023324;28;20195;-66
2022/01/23 03:05:01;;;;;;;2.80;2.37;;;;;;;;;;5025857;28;20199;-66
2022/01/23 03:10:28;;;;;;;3.63;3.33;;;;;;;;;;5028928;28;20234;-66
2022/01/23 03:16:17;;;;;;;3.30;3.00;;;;;;;;;;5020696;28;20191;-65
2022/01/23 03:24:47;;;;;;;2.90;2.70;;;;;;;;;;5025159;28;20215;-65
2022/01/23 03:30:29;;;;;;;3.23;2.97;;;;;;;;;;5032631;28;20240;-66
2022/01/23 03:32:57;;;;;;;3.40;3.10;;;;;;;;;;5027879;28;20234;-66
2022/01/23 03:35:27;;;;;;;3.30;3.00;;;;;;;;;;5038686;28;20198;-65
2022/01/23 03:38:01;;;;;;;2.73;2.53;;;;;;;;;;5026963;28;20215;-66
2022/01/23 03:40:35;;;;;;;3.23;2.93;;;;;;;;;;5022998;28;20198;-66
2022/01/23 03:43:13;;;;;;;3.30;3.03;;;;;;;;;;5028980;28;20215;-66
2022/01/23 03:46:09;;;;;;;3.40;3.10;;;;;;;;;;5029867;28;20202;-65
2022/01/23 03:51:22;;;;;;;3.23;2.93;;;;;;;;;;5034236;28;20210;-66
2022/01/23 03:53:56;;;;;;;2.77;2.57;;;;;;;;;;5032286;28;20210;-66
2022/01/23 03:56:30;;;;;;;3.40;3.10;;;;;;;;;;5027861;28;20301;-65
2022/01/23 03:59:15;;;;;;;2.87;2.67;;;;;;;;;;5030069;28;20215;-66
2022/01/23 04:01:49;;;;;;;3.03;2.70;;;;;;;;;;5028831;28;20316;-65
2022/01/23 04:06:58;;;;;;;3.33;3.03;;;;;;;;;;5030048;28;20199;-65
2022/01/23 04:09:30;;;;;;;3.10;2.80;;;;;;;;;;5025781;28;20202;-65
2022/01/23 04:12:01;;;;;;;3.43;3.13;;;;;;;;;;5029764;28;20199;-65
2022/01/23 04:14:36;;;;;;;3.33;3.13;;;;;;;;;;5034538;28;20607;-65
2022/01/23 04:33:54;;;;;;;3.03;2.77;;;;;;;;;;5017894;28;20223;-66
2022/01/23 04:59:34;;;;;;;3.73;3.43;;;;;;;;;;5026374;28;20207;-65
2022/01/23 05:04:50;;;;;;;2.90;2.70;;;;;;;;;;5023901;28;20205;-66
2022/01/23 05:07:29;;;;;;;3.10;2.83;;;;;;;;;;5010201;28;20195;-65
2022/01/23 05:10:00;;;;;;;3.20;3.00;;;;;;;;;;5026994;28;20210;-65
2022/01/23 05:12:33;;;;;;;3.40;3.10;;;;;;;;;;5021952;28;20799;-65
2022/01/23 05:15:11;;;;;;;4.70;3.00;;;;;;;;;;5023902;28;20839;-65
2022/01/23 05:17:41;;;;;;;4.57;3.23;;;;;;;;;;5031513;28;20198;-65
2022/01/23 05:20:15;;;;;;;3.60;3.23;;;;;;;;;;5012561;28;20537;-66
2022/01/23 05:22:48;;;;;;;3.60;3.30;;;;;;;;;;5012850;28;20234;-66
2022/01/23 05:25:30;;;;;;;3.13;2.90;;;;;;;;;;5012795;28;20229;-66
2022/01/23 05:28:03;;;;;;;3.80;3.50;;;;;;;;;;5027731;28;20880;-65
2022/01/23 05:30:36;;;;;;;3.80;3.50;;;;;;;;;;5029691;28;20202;-65
2022/01/23 05:33:09;;;;;;;3.60;3.30;;;;;;;;;;5012507;28;20239;-65
2022/01/23 05:35:41;;;;;;;4.40;3.60;;;;;;;;;;5006008;28;20517;-65
2022/01/23 05:38:15;;;;;;;3.80;3.50;;;;;;;;;;5008147;28;20219;-65
2022/01/23 05:40:56;;;;;;;4.07;3.67;;;;;;;;;;5009175;28;20207;-66
2022/01/23 05:43:26;;;;;;;4.57;4.23;;;;;;;;;;5010287;28;20239;-65
2022/01/23 05:45:58;;;;;;;4.17;3.77;;;;;;;;;;5002617;28;20672;-65
2022/01/23 05:48:30;;;;;;;4.20;3.90;;;;;;;;;;5003690;28;20267;-65
2022/01/23 05:51:02;;;;;;;4.90;4.40;;;;;;;;;;5011101;28;20235;-66
2022/01/23 05:53:31;;;;;;;4.60;4.20;;;;;;;;;;5010176;28;20207;-66
2022/01/23 05:56:00;;;;;;;4.77;4.33;;;;;;;;;;4996318;28;20207;-65
2022/01/23 05:58:32;;;;;;;4.03;3.73;;;;;;;;;;5016668;28;20211;-65
2022/01/23 06:01:04;;;;;;;5.83;4.60;;;;;;;;;;5012034;28;20235;-66
2022/01/23 06:03:35;;;;;;;4.50;4.10;;;;;;;;;;5016233;28;20219;-65
2022/01/23 06:06:04;;;;;;;4.53;4.13;;;;;;;;;;5006544;28;20744;-65
2022/01/23 06:08:35;;;;;;;4.63;4.23;;;;;;;;;;5007053;28;20215;-65
2022/01/23 06:11:17;;;;;;;4.47;4.07;;;;;;;;;;5005142;28;20211;-65
2022/01/23 06:13:49;;;;;;;6.03;4.27;;;;;;;;;;5003867;28;20223;-66
2022/01/23 06:16:23;;;;;;;4.90;4.50;;;;;;;;;;5006973;28;20216;-66
2022/01/23 06:18:53;;;;;;;5.03;4.63;;;;;;;;;;5009050;28;20561;-66
2022/01/23 06:21:25;;;;;;;4.40;4.00;;;;;;;;;;5006715;28;20208;-65
2022/01/23 06:24:11;;;;;;;4.83;4.37;;;;;;;;;;5006091;28;20664;-67
2022/01/23 06:26:48;;;;;;;4.93;4.53;;;;;;;;;;5001252;28;20235;-66
2022/01/23 06:29:18;;;;;;;4.77;4.37;;;;;;;;;;5005939;28;20235;-66
2022/01/23 06:31:50;;;;;;;5.10;4.70;;;;;;;;;;5007263;28;20678;-66
2022/01/23 06:34:28;;;;;;;4.97;4.57;;;;;;;;;;5009067;28;20294;-66
2022/01/23 06:36:58;;;;;;;5.03;4.63;;;;;;;;;;5002553;28;20231;-65
2022/01/23 06:39:28;;;;;;;4.73;4.33;;;;;;;;;;5021768;28;20207;-65
2022/01/23 06:41:57;;;;;;;4.97;4.57;;;;;;;;;;5022342;28;20292;-65
2022/01/23 06:44:28;;;;;;;5.00;4.50;;;;;;;;;;4994625;28;20197;-65
2022/01/23 06:46:56;;;;;;;4.87;4.37;;;;;;;;;;5007029;28;20595;-67
2022/01/23 06:49:31;;;;;;;4.77;4.37;;;;;;;;;;5003708;28;20207;-65
2022/01/23 06:52:02;;;;;;;4.77;4.10;;;;;;;;;;5010516;28;20198;-65
2022/01/23 06:54:31;;;;;;;4.50;3.63;;;;;;;;;;5022965;28;20211;-65
2022/01/23 06:57:02;;;;;;;4.77;4.33;;;;;;;;;;5002319;28;20707;-66
2022/01/23 06:59:33;;;;;;;4.63;4.23;;;;;;;;;;5000319;28;20526;-65
2022/01/23 07:02:03;;;;;;;4.33;3.93;;;;;;;;;;5009468;28;20703;-65
2022/01/23 07:04:35;;;;;;;4.40;4.10;;;;;;;;;;5005906;28;20608;-65
2022/01/23 07:07:04;;;;;;;5.37;4.23;;;;;;;;;;5017771;28;20199;-65
2022/01/23 07:09:34;;;;;;;4.30;3.90;;;;;;;;;;5009531;28;20646;-65
2022/01/23 07:12:06;;;;;;;4.93;4.53;;;;;;;;;;5000935;28;20207;-65
2022/01/23 07:14:47;;;;;;;5.27;4.73;;;;;;;;;;5003168;28;20219;-65
2022/01/23 07:17:18;;;;;;;4.60;4.13;;;;;;;;;;5019722;28;20199;-65
2022/01/23 07:19:45;;;;;;;5.83;4.97;;;;;;;;;;5010184;28;20212;-64
2022/01/23 07:22:19;;;;;;;5.00;4.60;;;;;;;;;;5006020;28;20224;-63
2022/01/23 07:24:53;;;;;;;4.60;4.30;;;;;;;;;;5013355;28;20207;-64
2022/01/23 07:27:24;;;;;;;5.37;4.80;;;;;;;;;;5017553;28;20226;-65
2022/01/23 07:29:54;;;;;;;4.90;4.40;;;;;;;;;;5008254;28;20211;-65
2022/01/23 07:32:25;;;;;;;4.77;4.37;;;;;;;;;;5019753;28;20291;-63
2022/01/23 07:34:56;;;;;;;5.30;4.80;;;;;;;;;;5035362;28;20215;-63
2022/01/23 07:37:45;;;;;;;5.23;4.80;;;;;;;;;;5020030;28;20215;-64
2022/01/23 07:40:19;;;;;;;5.47;4.53;;;;;;;;;;5029365;28;20210;-64
2022/01/23 07:42:54;;;;;;;5.13;4.63;;;;;;;;;;5033481;28;20494;-64
2022/01/23 07:45:44;;;;;;;5.27;4.80;;;;;;;;;;5030256;28;20209;-63
2022/01/23 07:48:29;;;;;;;5.17;4.67;;;;;;;;;;5027789;28;20637;-65
2022/01/23 07:51:08;;;;;;;6.30;5.00;;;;;;;;;;5048291;28;20195;-64
2022/01/23 07:53:38;;;;;;;5.47;5.03;;;;;;;;;;5026759;28;20568;-65
2022/01/23 07:56:10;;;;;;;5.20;4.70;;;;;;;;;;5012683;28;20276;-65
2022/01/23 07:58:42;;;;;;;4.87;4.43;;;;;;;;;;5027068;28;20218;-67
2022/01/23 08:01:19;;;;;;;5.03;4.63;;;;;;;;;;5021267;28;20611;-64
2022/01/23 08:03:52;;;;;;;5.40;4.83;;;;;;;;;;5026793;28;20750;-63
2022/01/23 08:06:28;;;;;;;6.60;5.17;;;;;;;;;;5025183;28;20218;-64
2022/01/23 08:09:04;;;;;;;5.93;5.33;;;;;;;;;;5030744;28;20311;-64
2022/01/23 08:11:37;;;;;;;5.70;5.20;;;;;;;;;;5035579;28;20740;-64
2022/01/23 08:14:07;;;;;;;5.43;4.93;;;;;;;;;;5028139;28;20211;-64
2022/01/23 08:16:36;;;;;;;6.03;5.43;;;;;;;;;;5028494;28;20963;-65
2022/01/23 08:19:09;;;;;;;5.67;5.07;;;;;;;;;;5031354;28;20198;-65
2022/01/23 08:21:39;;;;;;;5.97;5.47;;;;;;;;;;5013335;28;20621;-65
2022/01/23 08:24:08;;;;;;;6.63;4.97;;;;;;;;;;5010022;28;20661;-65
2022/01/23 08:26:38;;;;;;;5.57;5.07;;;;;;;;;;5011103;28;20297;-64
2022/01/23 08:29:10;;;;;;;6.50;5.67;;;;;;;;;;5023722;28;20256;-66
2022/01/23 08:31:39;;;;;;;7.13;5.87;;;;;;;;;;5034175;28;20206;-66
2022/01/23 08:34:06;;;;;;;6.93;6.23;;;;;;;;;;5039476;28;20210;-66
2022/01/23 08:36:35;;;;;;;6.37;5.77;;;;;;;;;;5031022;28;20218;-65
2022/01/23 08:39:08;;;;;;;6.67;6.17;;;;;;;;;;5033356;28;20203;-66
2022/01/23 08:41:49;;;;;;;7.43;6.73;;;;;;;;;;5034069;28;20203;-65
2022/01/23 08:44:20;;;;;;;7.97;7.17;;;;;;;;;;5033162;28;20215;-64
2022/01/23 08:46:49;;;;;;;7.23;6.60;;;;;;;;;;5015593;28;20194;-64
2022/01/23 08:49:20;;;;;;;7.63;6.60;;;;;;;;;;5038371;28;20218;-64
2022/01/23 08:51:51;;;;;;;7.57;6.97;;;;;;;;;;5032422;28;20225;-64
2022/01/23 08:54:20;;;;;;;7.77;7.07;;;;;;;;;;5046433;28;20206;-65
2022/01/23 08:56:47;;;;;;;8.60;7.67;;;;;;;;;;5031283;28;20219;-65
2022/01/23 08:59:17;;;;;;;7.77;6.97;;;;;;;;;;5034986;28;20213;-65
2022/01/23 09:01:49;;;;;;;7.77;7.17;;;;;;;;;;5032472;28;20199;-65
2022/01/23 09:04:22;;;;;;;8.23;7.43;;;;;;;;;;5013497;28;20572;-65
2022/01/23 09:06:52;;;;;;;7.87;7.13;;;;;;;;;;5027725;28;20198;-66
2022/01/23 09:09:30;;;;;;;8.50;7.63;;;;;;;;;;5027969;28;20213;-66
2022/01/23 09:12:08;;;;;;;8.50;7.70;;;;;;;;;;5029134;28;20605;-66
2022/01/23 09:14:39;;;;;;;10.10;8.20;;;;;;;;;;5030552;28;20238;-66
2022/01/23 09:17:10;;;;;;;8.80;7.90;;;;;;;;;;5026852;28;20199;-65
2022/01/23 09:19:48;;;;;;;8.37;7.57;;;;;;;;;;5026662;28;20750;-65
2022/01/23 09:22:16;;;;;;;12.07;8.17;;;;;;;;;;5026926;28;20670;-65
2022/01/23 09:24:43;;;;;;;9.17;8.27;;;;;;;;;;5019205;28;21441;-65
2022/01/23 09:27:18;;;;;;;10.90;8.73;;;;;;;;;;5022796;28;20311;-66
2022/01/23 09:29:53;;;;;;;9.30;8.40;;;;;;;;;;5007306;28;20217;-65
2022/01/23 09:32:24;;;;;;;9.73;8.73;;;;;;;;;;5009885;28;20227;-64
2022/01/23 09:34:55;;;;;;;8.93;8.07;;;;;;;;;;5022123;28;20203;-64
2022/01/23 09:37:23;;;;;;;12.03;8.73;;;;;;;;;;5024016;28;20222;-64
2022/01/23 09:39:55;;;;;;;12.20;8.67;;;;;;;;;;5026565;28;20300;-64
2022/01/23 09:42:27;;;;;;;9.40;7.80;;;;;;;;;;5012611;28;20206;-64
2022/01/23 09:45:01;;;;;;;11.10;8.07;;;;;;;;;;5028017;28;20229;-66
2022/01/23 09:47:40;;;;;;;9.03;8.13;;;;;;;;;;5026584;28;20423;-65
2022/01/23 09:50:13;;;;;;;10.53;7.80;;;;;;;;;;5022353;28;20210;-65
2022/01/23 09:52:44;;;;;;;12.80;7.77;;;;;;;;;;5018345;28;20423;-65
2022/01/23 09:55:16;;;;;;;8.03;7.23;;;;;;;;;;5020544;28;20256;-65
2022/01/23 09:57:49;;;;;;;8.47;7.17;;;;;;;;;;5018912;28;20203;-66
2022/01/23 10:00:24;;;;;;;8.20;7.17;;;;;;;;;;5021939;28;20217;-66
2022/01/23 10:02:57;;;;;;;9.47;7.70;;;;;;;;;;5018049;28;20668;-67
2022/01/23 10:05:29;;;;;;;8.97;8.07;;;;;;;;;;5019552;28;20203;-65
2022/01/23 10:07:58;;;;;;;7.90;7.00;;;;;;;;;;5019865;28;20539;-64
2022/01/23 10:10:35;;;;;;;9.47;7.90;;;;;;;;;;5020071;28;20203;-66
2022/01/23 10:13:11;;;;;;;9.57;7.50;;;;;;;;;;5000618;28;20242;-66
2022/01/23 10:15:40;;;;;;;10.53;6.63;;;;;;;;;;5024432;28;20204;-64
2022/01/23 10:18:10;;;;;;;8.57;7.10;;;;;;;;;;5013822;28;20207;-65
2022/01/23 10:20:41;;;;;;;9.63;6.90;;;;;;;;;;5013780;28;20202;-66
2022/01/23 10:23:11;;;;;;;8.40;6.63;;;;;;;;;;5006076;28;20238;-66
2022/01/23 10:26:03;;;;;;;7.47;6.37;;;;;;;;;;5012644;28;20679;-66
2022/01/23 10:28:36;;;;;;;9.03;6.90;;;;;;;;;;5020355;28;20218;-66
2022/01/23 10:31:09;;;;;;;8.87;6.70;;;;;;;;;;5021371;28;20195;-65
2022/01/23 10:33:51;;;;;;;10.27;6.57;;;;;;;;;;5007807;28;20267;-65
2022/01/23 10:36:26;;;;;;;7.60;6.93;;;;;;;;;;5001819;28;20199;-66
2022/01/23 10:39:12;;;;;;;9.17;6.73;;;;;;;;;;5003405;28;20655;-66
2022/01/23 10:41:59;;;;;;;10.00;6.00;;;;;;;;;;5007990;28;20253;-67
2022/01/23 10:50:03;;;;;;;12.13;6.10;;;;;;;;;;4987000;28;20211;-68
2022/01/23 10:52:48;;;;;;;9.10;5.77;;;;;;;;;;5009096;28;20250;-65
2022/01/23 10:55:20;;;;;;;7.23;6.00;;;;;;;;;;5012357;28;20206;-67
2022/01/23 10:57:53;;;;;;;9.80;6.10;;;;;;;;;;5006353;28;20204;-68
2022/01/23 11:00:33;;;;;;;8.10;6.50;;;;;;;;;;4982632;28;20235;-66
2022/01/23 11:03:13;;;;;;;6.60;6.00;;;;;;;;;;5005578;28;20711;-64
2022/01/23 11:05:45;;;;;;;7.27;6.50;;;;;;;;;;4989883;28;20860;-63
2022/01/23 11:08:24;;;;;;;8.77;6.03;;;;;;;;;;4999694;28;20281;-63
2022/01/23 11:11:00;;;;;;;6.90;6.13;;;;;;;;;;5008850;28;20200;-67
2022/01/23 11:19:30;;;;;;;9.93;6.80;;;;;;;;;;5005451;28;20536;-67
2022/01/23 11:22:25;;;;;;;8.33;6.97;;;;;;;;;;5012509;28;20200;-67
2022/01/23 11:25:07;;;;;;;10.13;6.43;;;;;;;;;;4985433;28;20270;-67
2022/01/23 11:27:40;;;;;;;8.90;6.90;;;;;;;;;;4990692;28;20204;-67
2022/01/23 11:30:13;;;;;;;9.90;6.97;;;;;;;;;;5008410;28;20203;-68
2022/01/23 11:32:44;;;;;;;8.57;6.90;;;;;;;;;;5013684;28;20605;-69
2022/01/23 11:35:19;;;;;;;7.60;5.97;;;;;;;;;;5025706;28;20183;-68
2022/01/23 11:38:05;;;;;;;8.10;6.57;;;;;;;;;;5021714;28;20604;-68
2022/01/23 11:55:29;;;;;;;6.80;5.60;;;;;;;;;;5005779;28;20207;-69
2022/01/23 11:58:02;;;;;;;7.60;6.37;;;;;;;;;;5033275;28;20519;-70
2022/01/23 12:00:31;;;;;;;6.37;5.50;;;;;;;;;;5020879;28;20199;-68
2022/01/23 12:03:14;;;;;;;6.73;6.03;;;;;;;;;;5022120;28;20210;-69
2022/01/23 12:05:48;;;;;;;8.33;5.63;;;;;;;;;;5028234;28;20214;-68
2022/01/23 12:08:36;;;;;;;7.53;5.80;;;;;;;;;;5016498;28;20680;-67
2022/01/23 12:11:48;;;;;;;6.93;6.23;;;;;;;;;;5011442;28;20203;-69
2022/01/23 12:17:03;;;;;;;9.47;6.33;;;;;;;;;;5015391;28;20206;-69
2022/01/23 12:19:34;;;;;;;6.63;5.93;;;;;;;;;;5031489;28;20242;-69
2022/01/23 12:22:21;;;;;;;6.60;5.90;;;;;;;;;;5024656;28;20207;-68
2022/01/23 12:24:50;;;;;;;7.23;6.13;;;;;;;;;;5004104;28;20567;-68
2022/01/23 12:27:24;;;;;;;8.47;6.37;;;;;;;;;;5017419;28;20213;-68
2022/01/23 12:30:11;;;;;;;7.73;6.43;;;;;;;;;;5023505;28;20213;-68
2022/01/23 12:32:39;;;;;;;6.97;6.07;;;;;;;;;;5019004;28;20246;-68
2022/01/23 12:35:11;;;;;;;9.13;6.33;;;;;;;;;;5027173;28;20203;-70
2022/01/23 12:37:59;;;;;;;8.13;7.23;;;;;;;;;;5022115;28;20211;-70
2022/01/23 12:40:36;;;;;;;7.67;6.67;;;;;;;;;;5024585;28;20206;-70
2022/01/23 12:43:25;;;;;;;7.60;6.77;;;;;;;;;;5026954;28;20191;-70
2022/01/23 12:45:58;;;;;;;7.57;6.73;;;;;;;;;;5028121;28;20225;-70
2022/01/23 12:48:39;;;;;;;8.13;6.77;;;;;;;;;;5023859;28;20218;-71
2022/01/23 12:51:18;;;;;;;8.23;6.60;;;;;;;;;;5026135;28;20732;-69
2022/01/23 12:53:52;;;;;;;22.77;6.73;;;;;;;;;;5023656;28;20210;-69
2022/01/23 12:56:30;;;;;;;9.30;7.20;;;;;;;;;;5002595;28;20233;-69
2022/01/23 12:59:10;;;;;;;9.57;7.33;;;;;;;;;;5022252;28;20187;-69
2022/01/23 13:01:47;;;;;;;11.30;6.97;;;;;;;;;;5022654;28;20222;-68
2022/01/23 13:04:16;;;;;;;8.00;6.83;;;;;;;;;;5022364;28;20232;-68
2022/01/23 13:06:52;;;;;;;7.63;6.63;;;;;;;;;;5021402;28;20280;-67
2022/01/23 13:12:48;;;;;;;8.80;6.40;;;;;;;;;;5021417;28;20198;-69
2022/01/23 13:15:56;;;;;;;7.37;6.63;;;;;;;;;;5030712;28;20198;-69
2022/01/23 13:32:42;;;;;;;7.37;6.47;;;;;;;;;;5019292;28;20227;-69
2022/01/23 13:35:15;;;;;;;6.57;5.70;;;;;;;;;;5021009;28;20195;-69
2022/01/23 13:37:58;;;;;;;7.00;6.40;;;;;;;;;;5018703;28;20218;-69
2022/01/23 13:40:38;;;;;;;7.63;6.53;;;;;;;;;;5019427;28;20284;-69
2022/01/23 14:00:02;;;;;;;7.57;6.60;;;;;;;;;;5028823;28;20206;-69
2022/01/23 14:02:50;;;;;;;10.97;6.97;;;;;;;;;;4992699;28;20490;-69
2022/01/23 14:05:27;;;;;;;7.70;6.90;;;;;;;;;;5013298;28;20305;-69
2022/01/23 14:08:05;;;;;;;9.73;7.13;;;;;;;;;;4992853;28;20190;-69
2022/01/23 14:10:41;;;;;;;9.73;6.27;;;;;;;;;;5027340;28;20293;-69
2022/01/23 14:13:26;;;;;;;9.63;7.40;;;;;;;;;;5016742;28;20246;-69
2022/01/23 14:15:56;;;;;;;10.07;7.67;;;;;;;;;;5012626;28;20210;-68
2022/01/23 14:18:28;;;;;;;14.67;7.70;;;;;;;;;;4999327;28;20199;-67
2022/01/23 14:21:05;;;;;;;12.70;7.67;;;;;;;;;;5020514;28;20635;-67
2022/01/23 14:23:34;;;;;;;10.37;7.70;;;;;;;;;;5017476;28;20763;-67
2022/01/23 14:26:10;;;;;;;11.10;7.77;;;;;;;;;;5016618;28;20249;-69
2022/01/23 14:28:44;;;;;;;11.80;7.23;;;;;;;;;;5017874;28;20230;-69
2022/01/23 14:31:20;;;;;;;8.50;7.60;;;;;;;;;;5017267;28;20251;-69
2022/01/23 14:34:04;;;;;;;11.00;8.17;;;;;;;;;;4999839;28;20267;-69
2022/01/23 14:36:40;;;;;;;11.00;7.70;;;;;;;;;;5012272;28;20199;-69
2022/01/23 14:39:12;;;;;;;12.80;7.57;;;;;;;;;;5018555;28;20214;-70
2022/01/23 14:41:46;;;;;;;16.10;8.37;;;;;;;;;;5022533;28;20207;-67
2022/01/23 14:44:17;;;;;;;11.93;8.70;;;;;;;;;;5021083;28;20223;-68
2022/01/23 14:46:48;;;;;;;14.43;8.17;;;;;;;;;;5031056;28;20210;-69
2022/01/23 14:49:26;;;;;;;11.30;8.57;;;;;;;;;;5000089;28;20208;-69
2022/01/23 14:52:10;;;;;;;13.10;7.57;;;;;;;;;;5019365;28;20223;-70
2022/01/23 14:54:43;;;;;;;11.30;8.10;;;;;;;;;;5018976;28;20225;-70
2022/01/23 14:57:16;;;;;;;12.13;8.00;;;;;;;;;;5019223;28;20202;-69
2022/01/23 14:59:47;;;;;;;12.27;7.97;;;;;;;;;;5020413;28;20195;-70
2022/01/23 15:02:20;;;;;;;11.83;8.77;;;;;;;;;;5003780;28;20830;-67
2022/01/23 15:04:53;;;;;;;9.53;8.10;;;;;;;;;;5021991;28;20835;-67
2022/01/23 15:07:22;;;;;;;11.50;8.50;;;;;;;;;;5029628;28;20211;-66
2022/01/23 15:09:53;;;;;;;10.00;8.03;;;;;;;;;;5030141;28;20223;-67
2022/01/23 15:12:24;;;;;;;11.87;8.63;;;;;;;;;;5026795;28;20210;-69
2022/01/23 15:14:54;;;;;;;14.07;9.50;;;;;;;;;;5029379;28;20199;-69
2022/01/23 15:17:27;;;;;;;12.50;9.60;;;;;;;;;;5028460;28;20213;-68
2022/01/23 15:20:00;;;;;;;11.17;9.67;;;;;;;;;;5012856;28;20691;-68
2022/01/23 15:22:31;;;;;;;10.73;9.43;;;;;;;;;;5026607;28;20215;-73
2022/01/23 15:25:01;;;;;;;12.33;10.33;;;;;;;;;;5023766;28;20231;-68
2022/01/23 15:27:31;;;;;;;13.40;9.90;;;;;;;;;;5037087;28;20647;-70
2022/01/23 15:30:03;;;;;;;16.80;10.30;;;;;;;;;;5031542;28;20733;-71
2022/01/23 15:32:32;;;;;;;14.17;10.30;;;;;;;;;;5028683;28;20233;-72
2022/01/23 15:35:08;;;;;;;14.77;10.57;;;;;;;;;;5013224;28;20211;-71
2022/01/23 15:37:39;;;;;;;16.03;10.40;;;;;;;;;;5012712;28;20771;-69
2022/01/23 15:40:13;;;;;;;14.73;9.90;;;;;;;;;;5005502;28;20200;-68
2022/01/23 15:42:45;;;;;;;14.07;9.83;;;;;;;;;;4993547;28;20200;-69
2022/01/23 15:45:17;;;;;;;13.67;9.90;;;;;;;;;;5012293;28;20282;-68
2022/01/23 15:47:46;;;;;;;12.53;9.83;;;;;;;;;;4999177;28;20212;-69
2022/01/23 15:50:19;;;;;;;13.57;9.93;;;;;;;;;;5011997;28;20211;-69
2022/01/23 15:52:51;;;;;;;12.13;9.93;;;;;;;;;;5011457;28;20211;-69
2022/01/23 15:55:34;;;;;;;14.73;11.07;;;;;;;;;;5011976;28;20228;-69
2022/01/23 15:58:06;;;;;;;12.87;9.57;;;;;;;;;;5008232;28;20200;-69
2022/01/23 16:00:57;;;;;;;12.87;10.40;;;;;;;;;;5011897;28;20206;-69
2022/01/23 16:03:39;;;;;;;12.43;9.70;;;;;;;;;;4990116;28;20277;-69
2022/01/23 16:06:13;;;;;;;11.87;10.10;;;;;;;;;;5015505;28;20642;-70
2022/01/23 16:08:45;;;;;;;11.53;9.57;;;;;;;;;;5013706;28;20206;-70
2022/01/23 16:11:14;;;;;;;10.50;9.40;;;;;;;;;;5021247;28;20196;-70
2022/01/23 16:13:44;;;;;;;11.97;10.53;;;;;;;;;;5011511;28;20207;-70
2022/01/23 16:16:18;;;;;;;12.53;10.30;;;;;;;;;;5010284;28;20208;-70
2022/01/23 16:18:46;;;;;;;13.00;10.53;;;;;;;;;;5003945;28;20619;-70
2022/01/23 16:21:21;;;;;;;11.70;10.30;;;;;;;;;;5010377;28;20225;-72
2022/01/23 16:23:59;;;;;;;11.77;10.07;;;;;;;;;;5003884;28;20212;-73
2022/01/23 16:26:41;;;;;;;11.10;9.87;;;;;;;;;;5000300;28;20808;-73
2022/01/23 16:29:13;;;;;;;12.50;11.10;;;;;;;;;;4988959;28;20195;-73
2022/01/23 16:31:51;;;;;;;11.10;10.00;;;;;;;;;;5005753;28;20206;-73
2022/01/23 16:34:24;;;;;;;11.90;10.07;;;;;;;;;;5010903;28;20246;-72
2022/01/23 16:36:57;;;;;;;10.03;8.90;;;;;;;;;;5018077;28;20203;-72
2022/01/23 16:39:44;;;;;;;11.10;10.00;;;;;;;;;;5000404;28;20199;-72
2022/01/23 16:42:18;;;;;;;11.90;10.23;;;;;;;;;;5004563;28;20214;-72
2022/01/23 16:45:01;;;;;;;12.23;10.47;;;;;;;;;;5001274;28;20306;-73
2022/01/23 16:47:33;;;;;;;10.20;9.20;;;;;;;;;;5000593;28;20614;-72
2022/01/23 16:50:01;;;;;;;11.17;9.97;;;;;;;;;;5004315;28;20198;-72
2022/01/23 16:52:30;;;;;;;11.20;10.00;;;;;;;;;;4984288;28;20908;-72
2022/01/23 16:55:05;;;;;;;10.47;9.43;;;;;;;;;;5010811;28;20216;-73
2022/01/23 16:57:36;;;;;;;12.27;9.90;;;;;;;;;;4996169;28;20208;-73
2022/01/23 17:00:11;;;;;;;10.97;9.73;;;;;;;;;;4999502;28;20587;-72
2022/01/23 17:03:01;;;;;;;11.73;10.53;;;;;;;;;;4991845;28;20219;-72
2022/01/23 17:05:33;;;;;;;11.43;10.23;;;;;;;;;;4995673;28;20219;-72
2022/01/23 17:08:02;;;;;;;11.93;10.53;;;;;;;;;;4986748;28;20195;-72
2022/01/23 17:10:31;;;;;;;12.53;11.23;;;;;;;;;;5002507;28;20212;-72
2022/01/23 17:13:03;;;;;;;12.67;11.47;;;;;;;;;;5008991;28;20212;-72
2022/01/23 17:15:35;;;;;;;12.13;11.03;;;;;;;;;;5001420;28;20200;-72
2022/01/23 17:18:07;;;;;;;12.03;10.90;;;;;;;;;;5001174;28;20196;-72
2022/01/23 17:20:44;;;;;;;12.03;10.83;;;;;;;;;;5005384;28;20190;-73
2022/01/23 17:23:18;;;;;;;13.60;12.10;;;;;;;;;;4991334;28;20204;-73
2022/01/23 17:25:47;;;;;;;13.07;11.70;;;;;;;;;;4992331;28;20219;-73
2022/01/23 17:28:16;;;;;;;14.10;12.70;;;;;;;;;;5001564;28;20259;-72
2022/01/23 17:30:50;;;;;;;12.60;11.23;;;;;;;;;;5002076;28;20212;-72
2022/01/23 17:33:24;;;;;;;14.03;12.53;;;;;;;;;;5006569;28;20570;-72
2022/01/23 17:35:54;;;;;;;13.43;11.57;;;;;;;;;;5010194;28;20207;-72
2022/01/23 17:38:25;;;;;;;13.10;11.80;;;;;;;;;;5035294;28;20210;-72
2022/01/23 17:40:57;;;;;;;12.67;11.37;;;;;;;;;;5010004;28;20211;-73
2022/01/23 17:43:29;;;;;;;13.17;11.70;;;;;;;;;;5028205;28;20199;-72
2022/01/23 17:46:05;;;;;;;12.30;11.00;;;;;;;;;;5026633;28;20231;-72
2022/01/23 17:51:36;;;;;;;13.00;11.70;;;;;;;;;;5023957;28;20203;-73
2022/01/23 17:54:10;;;;;;;11.93;10.50;;;;;;;;;;5022575;28;20204;-72
2022/01/23 17:56:41;;;;;;;13.33;11.57;;;;;;;;;;5022563;28;20210;-72
2022/01/23 17:59:13;;;;;;;12.30;11.03;;;;;;;;;;5036820;28;20268;-73
2022/01/23 18:01:41;;;;;;;12.03;10.83;;;;;;;;;;5025385;28;20202;-72
2022/01/23 18:04:13;;;;;;;11.43;10.23;;;;;;;;;;5024743;28;20219;-73
2022/01/23 18:06:45;;;;;;;12.30;11.10;;;;;;;;;;5023428;28;20221;-72
2022/01/23 18:09:28;;;;;;;12.40;11.13;;;;;;;;;;5021910;28;20207;-72
2022/01/23 18:12:02;;;;;;;12.70;11.30;;;;;;;;;;5022102;28;20743;-72
2022/01/23 18:14:32;;;;;;;12.97;11.67;;;;;;;;;;4987056;28;20196;-72
2022/01/23 18:17:01;;;;;;;11.67;10.50;;;;;;;;;;5034465;28;20734;-72
2022/01/23 18:19:33;;;;;;;11.87;10.67;;;;;;;;;;5004775;28;20227;-72
2022/01/23 18:22:15;;;;;;;11.53;10.27;;;;;;;;;;5015526;28;20204;-72
2022/01/23 18:24:47;;;;;;;10.77;9.67;;;;;;;;;;5011241;28;20202;-72
2022/01/23 18:27:16;;;;;;;10.57;9.47;;;;;;;;;;5019821;28;20558;-72
2022/01/23 18:29:46;;;;;;;12.50;11.30;;;;;;;;;;5027265;28;20210;-72
2022/01/23 18:32:18;;;;;;;12.27;10.90;;;;;;;;;;5027345;28;20210;-72
2022/01/23 18:34:55;;;;;;;10.60;9.50;;;;;;;;;;5024876;28;20238;-72
2022/01/23 18:37:25;;;;;;;10.87;9.87;;;;;;;;;;5020242;28;20202;-72
2022/01/23 18:39:57;;;;;;;11.10;10.00;;;;;;;;;;5021149;28;20261;-72
2022/01/23 18:42:49;;;;;;;12.93;10.43;;;;;;;;;;5013705;28;20218;-72
2022/01/23 18:45:22;;;;;;;11.27;9.93;;;;;;;;;;4997743;28;20229;-71
2022/01/23 18:47:55;;;;;;;10.77;9.63;;;;;;;;;;5028706;28;20659;-72